sensor_id;sensor_type;location;lat;lon;timestamp;pressure;altitude;pressure_sealevel;temperature
75822;BMP180;64454;51.984;9.838;2023-08-24T00:00:24;100495.00;;;17.80
75822;BMP180;64454;51.984;9.838;2023-08-24T00:02:52;100493.00;;;17.70
75822;BMP180;64454;51.984;9.838;2023-08-24T00:05:20;100496.00;;;18.00
75822;BMP180;64454;51.984;9.838;2023-08-24T00:07:47;100494.00;;;17.80
75822;BMP180;64454;51.984;9.838;2023-08-24T00:10:15;100494.00;;;17.50
75822;BMP180;64454;51.984;9.838;2023-08-24T00:12:42;100496.00;;;17.90
75822;BMP180;64454;51.984;9.838;2023-08-24T00:15:09;100495.00;;;18.10
75822;BMP180;64454;51.984;9.838;2023-08-24T00:17:37;100500.00;;;17.90
75822;BMP180;64454;51.984;9.838;2023-08-24T00:20:07;100500.00;;;17.90
75822;BMP180;64454;51.984;9.838;2023-08-24T00:22:37;100500.00;;;17.90
75822;BMP180;64454;51.984;9.838;2023-08-24T00:25:06;100500.00;;;17.90
75822;BMP180;64454;51.984;9.838;2023-08-24T00:27:33;100508.00;;;17.80
75822;BMP180;64454;51.984;9.838;2023-08-24T00:30:03;100493.00;;;17.70
75822;BMP180;64454;51.984;9.838;2023-08-24T00:32:32;100491.00;;;17.70
75822;BMP180;64454;51.984;9.838;2023-08-24T00:35:00;100486.00;;;17.70
75822;BMP180;64454;51.984;9.838;2023-08-24T00:37:28;100484.00;;;17.70
75822;BMP180;64454;51.984;9.838;2023-08-24T00:39:55;100476.00;;;17.70
75822;BMP180;64454;51.984;9.838;2023-08-24T00:42:23;100480.00;;;17.60
75822;BMP180;64454;51.984;9.838;2023-08-24T00:44:50;100476.00;;;17.40
75822;BMP180;64454;51.984;9.838;2023-08-24T00:47:17;100476.00;;;17.40
75822;BMP180;64454;51.984;9.838;2023-08-24T00:49:44;100476.00;;;17.50
75822;BMP180;64454;51.984;9.838;2023-08-24T00:52:12;100476.00;;;17.60
75822;BMP180;64454;51.984;9.838;2023-08-24T00:54:41;100474.00;;;17.90
75822;BMP180;64454;51.984;9.838;2023-08-24T00:57:08;100477.00;;;18.00
75822;BMP180;64454;51.984;9.838;2023-08-24T00:59:36;100467.00;;;17.80
75822;BMP180;64454;51.984;9.838;2023-08-24T01:02:03;100468.00;;;17.70
75822;BMP180;64454;51.984;9.838;2023-08-24T01:04:30;100464.00;;;17.70
75822;BMP180;64454;51.984;9.838;2023-08-24T01:06:57;100462.00;;;17.70
75822;BMP180;64454;51.984;9.838;2023-08-24T01:09:24;100457.00;;;17.50
75822;BMP180;64454;51.984;9.838;2023-08-24T01:12:04;100458.00;;;17.60
75822;BMP180;64454;51.984;9.838;2023-08-24T01:14:44;100454.00;;;17.50
75822;BMP180;64454;51.984;9.838;2023-08-24T01:17:15;100454.00;;;17.30
75822;BMP180;64454;51.984;9.838;2023-08-24T01:19:45;100463.00;;;17.30
75822;BMP180;64454;51.984;9.838;2023-08-24T01:22:33;100473.00;;;17.60
75822;BMP180;64454;51.984;9.838;2023-08-24T01:25:11;100474.00;;;17.60
75822;BMP180;64454;51.984;9.838;2023-08-24T01:27:42;100476.00;;;17.50
75822;BMP180;64454;51.984;9.838;2023-08-24T01:30:10;100468.00;;;17.70
75822;BMP180;64454;51.984;9.838;2023-08-24T01:32:37;100467.00;;;17.70
75822;BMP180;64454;51.984;9.838;2023-08-24T01:35:08;100467.00;;;17.70
75822;BMP180;64454;51.984;9.838;2023-08-24T01:37:36;100466.00;;;17.60
75822;BMP180;64454;51.984;9.838;2023-08-24T01:40:07;100463.00;;;17.60
75822;BMP180;64454;51.984;9.838;2023-08-24T01:42:37;100461.00;;;17.70
75822;BMP180;64454;51.984;9.838;2023-08-24T01:45:11;100471.00;;;17.50
75822;BMP180;64454;51.984;9.838;2023-08-24T01:47:41;100474.00;;;17.40
75822;BMP180;64454;51.984;9.838;2023-08-24T01:50:10;100467.00;;;17.50
75822;BMP180;64454;51.984;9.838;2023-08-24T01:52:37;100464.00;;;17.30
75822;BMP180;64454;51.984;9.838;2023-08-24T01:55:05;100470.00;;;17.60
75822;BMP180;64454;51.984;9.838;2023-08-24T01:57:32;100460.00;;;17.60
75822;BMP180;64454;51.984;9.838;2023-08-24T01:59:59;100461.00;;;17.60
75822;BMP180;64454;51.984;9.838;2023-08-24T02:02:28;100455.00;;;17.50
75822;BMP180;64454;51.984;9.838;2023-08-24T02:04:55;100444.00;;;17.20
75822;BMP180;64454;51.984;9.838;2023-08-24T02:07:22;100443.00;;;17.00
75822;BMP180;64454;51.984;9.838;2023-08-24T02:09:48;100445.00;;;17.00
75822;BMP180;64454;51.984;9.838;2023-08-24T02:12:15;100440.00;;;16.80
75822;BMP180;64454;51.984;9.838;2023-08-24T02:14:42;100443.00;;;17.00
75822;BMP180;64454;51.984;9.838;2023-08-24T02:17:09;100432.00;;;17.20
75822;BMP180;64454;51.984;9.838;2023-08-24T02:19:38;100442.00;;;17.30
75822;BMP180;64454;51.984;9.838;2023-08-24T02:22:05;100437.00;;;17.40
75822;BMP180;64454;51.984;9.838;2023-08-24T02:24:32;100438.00;;;17.20
75822;BMP180;64454;51.984;9.838;2023-08-24T02:26:59;100429.00;;;17.30
75822;BMP180;64454;51.984;9.838;2023-08-24T02:29:26;100428.00;;;17.30
75822;BMP180;64454;51.984;9.838;2023-08-24T02:31:53;100425.00;;;17.20
75822;BMP180;64454;51.984;9.838;2023-08-24T02:34:21;100433.00;;;17.30
75822;BMP180;64454;51.984;9.838;2023-08-24T02:36:49;100433.00;;;17.40
75822;BMP180;64454;51.984;9.838;2023-08-24T02:39:19;100424.00;;;17.40
75822;BMP180;64454;51.984;9.838;2023-08-24T02:41:46;100433.00;;;17.20
75822;BMP180;64454;51.984;9.838;2023-08-24T02:44:14;100418.00;;;17.20
75822;BMP180;64454;51.984;9.838;2023-08-24T02:46:44;100419.00;;;17.10
75822;BMP180;64454;51.984;9.838;2023-08-24T02:49:11;100424.00;;;17.10
75822;BMP180;64454;51.984;9.838;2023-08-24T02:51:38;100425.00;;;16.90
75822;BMP180;64454;51.984;9.838;2023-08-24T02:54:08;100413.00;;;16.80
75822;BMP180;64454;51.984;9.838;2023-08-24T02:56:35;100415.00;;;16.80
75822;BMP180;64454;51.984;9.838;2023-08-24T02:59:02;100412.00;;;16.60
75822;BMP180;64454;51.984;9.838;2023-08-24T03:01:29;100409.00;;;16.60
75822;BMP180;64454;51.984;9.838;2023-08-24T03:03:55;100404.00;;;16.60
75822;BMP180;64454;51.984;9.838;2023-08-24T03:06:23;100400.00;;;16.50
75822;BMP180;64454;51.984;9.838;2023-08-24T03:08:50;100413.00;;;16.60
75822;BMP180;64454;51.984;9.838;2023-08-24T03:11:18;100408.00;;;16.60
75822;BMP180;64454;51.984;9.838;2023-08-24T03:13:45;100407.00;;;16.90
75822;BMP180;64454;51.984;9.838;2023-08-24T03:16:12;100407.00;;;16.90
75822;BMP180;64454;51.984;9.838;2023-08-24T03:18:39;100408.00;;;16.80
75822;BMP180;64454;51.984;9.838;2023-08-24T03:21:06;100407.00;;;17.00
75822;BMP180;64454;51.984;9.838;2023-08-24T03:23:33;100413.00;;;17.10
75822;BMP180;64454;51.984;9.838;2023-08-24T03:26:00;100419.00;;;16.90
75822;BMP180;64454;51.984;9.838;2023-08-24T03:28:28;100422.00;;;17.00
75822;BMP180;64454;51.984;9.838;2023-08-24T03:30:55;100413.00;;;16.80
75822;BMP180;64454;51.984;9.838;2023-08-24T03:33:22;100416.00;;;17.00
75822;BMP180;64454;51.984;9.838;2023-08-24T03:35:49;100414.00;;;16.90
75822;BMP180;64454;51.984;9.838;2023-08-24T03:38:16;100415.00;;;17.00
75822;BMP180;64454;51.984;9.838;2023-08-24T03:40:43;100413.00;;;17.00
75822;BMP180;64454;51.984;9.838;2023-08-24T03:43:10;100407.00;;;16.90
75822;BMP180;64454;51.984;9.838;2023-08-24T03:45:39;100403.00;;;16.80
75822;BMP180;64454;51.984;9.838;2023-08-24T03:48:06;100404.00;;;16.80
75822;BMP180;64454;51.984;9.838;2023-08-24T03:50:33;100409.00;;;16.90
75822;BMP180;64454;51.984;9.838;2023-08-24T03:52:59;100407.00;;;16.60
75822;BMP180;64454;51.984;9.838;2023-08-24T03:55:26;100404.00;;;16.80
75822;BMP180;64454;51.984;9.838;2023-08-24T03:57:53;100405.00;;;16.60
75822;BMP180;64454;51.984;9.838;2023-08-24T04:00:20;100405.00;;;16.80
75822;BMP180;64454;51.984;9.838;2023-08-24T04:02:48;100410.00;;;16.80
75822;BMP180;64454;51.984;9.838;2023-08-24T04:05:16;100408.00;;;16.90
75822;BMP180;64454;51.984;9.838;2023-08-24T04:07:43;100419.00;;;16.80
75822;BMP180;64454;51.984;9.838;2023-08-24T04:10:11;100422.00;;;16.70
75822;BMP180;64454;51.984;9.838;2023-08-24T04:12:38;100413.00;;;16.60
75822;BMP180;64454;51.984;9.838;2023-08-24T04:15:06;100414.00;;;16.40
75822;BMP180;64454;51.984;9.838;2023-08-24T04:17:33;100416.00;;;16.30
75822;BMP180;64454;51.984;9.838;2023-08-24T04:20:01;100425.00;;;16.40
75822;BMP180;64454;51.984;9.838;2023-08-24T04:22:29;100423.00;;;16.50
75822;BMP180;64454;51.984;9.838;2023-08-24T04:24:56;100428.00;;;16.50
75822;BMP180;64454;51.984;9.838;2023-08-24T04:27:23;100426.00;;;16.40
75822;BMP180;64454;51.984;9.838;2023-08-24T04:29:50;100420.00;;;16.50
75822;BMP180;64454;51.984;9.838;2023-08-24T04:32:17;100427.00;;;16.50
75822;BMP180;64454;51.984;9.838;2023-08-24T04:34:44;100425.00;;;16.40
75822;BMP180;64454;51.984;9.838;2023-08-24T04:37:12;100428.00;;;16.50
75822;BMP180;64454;51.984;9.838;2023-08-24T04:39:39;100430.00;;;16.50
75822;BMP180;64454;51.984;9.838;2023-08-24T04:42:06;100425.00;;;16.60
75822;BMP180;64454;51.984;9.838;2023-08-24T04:44:34;100430.00;;;16.60
75822;BMP180;64454;51.984;9.838;2023-08-24T04:47:00;100435.00;;;16.50
75822;BMP180;64454;51.984;9.838;2023-08-24T04:49:29;100435.00;;;16.40
75822;BMP180;64454;51.984;9.838;2023-08-24T04:51:56;100439.00;;;16.60
75822;BMP180;64454;51.984;9.838;2023-08-24T04:54:24;100441.00;;;16.70
75822;BMP180;64454;51.984;9.838;2023-08-24T04:56:51;100435.00;;;16.50
75822;BMP180;64454;51.984;9.838;2023-08-24T04:59:20;100432.00;;;16.30
75822;BMP180;64454;51.984;9.838;2023-08-24T05:01:47;100435.00;;;16.30
75822;BMP180;64454;51.984;9.838;2023-08-24T05:04:16;100431.00;;;16.50
75822;BMP180;64454;51.984;9.838;2023-08-24T05:06:44;100424.00;;;16.50
75822;BMP180;64454;51.984;9.838;2023-08-24T05:09:11;100432.00;;;16.50
75822;BMP180;64454;51.984;9.838;2023-08-24T05:11:39;100432.00;;;16.70
75822;BMP180;64454;51.984;9.838;2023-08-24T05:14:07;100432.00;;;16.90
75822;BMP180;64454;51.984;9.838;2023-08-24T05:16:34;100432.00;;;17.00
75822;BMP180;64454;51.984;9.838;2023-08-24T05:19:01;100434.00;;;17.10
75822;BMP180;64454;51.984;9.838;2023-08-24T05:21:28;100439.00;;;17.30
75822;BMP180;64454;51.984;9.838;2023-08-24T05:23:55;100427.00;;;17.10
75822;BMP180;64454;51.984;9.838;2023-08-24T05:26:22;100429.00;;;17.30
75822;BMP180;64454;51.984;9.838;2023-08-24T05:28:52;100418.00;;;17.40
75822;BMP180;64454;51.984;9.838;2023-08-24T05:31:19;100422.00;;;17.50
75822;BMP180;64454;51.984;9.838;2023-08-24T05:33:46;100429.00;;;17.60
75822;BMP180;64454;51.984;9.838;2023-08-24T05:36:13;100428.00;;;17.80
75822;BMP180;64454;51.984;9.838;2023-08-24T05:38:41;100431.00;;;18.00
75822;BMP180;64454;51.984;9.838;2023-08-24T05:41:12;100429.00;;;18.40
75822;BMP180;64454;51.984;9.838;2023-08-24T05:43:40;100429.00;;;18.30
75822;BMP180;64454;51.984;9.838;2023-08-24T05:46:08;100433.00;;;18.10
75822;BMP180;64454;51.984;9.838;2023-08-24T05:48:35;100430.00;;;18.40
75822;BMP180;64454;51.984;9.838;2023-08-24T05:51:01;100436.00;;;18.70
75822;BMP180;64454;51.984;9.838;2023-08-24T05:53:28;100442.00;;;18.70
75822;BMP180;64454;51.984;9.838;2023-08-24T05:55:58;100440.00;;;18.40
75822;BMP180;64454;51.984;9.838;2023-08-24T05:58:25;100444.00;;;18.30
75822;BMP180;64454;51.984;9.838;2023-08-24T06:00:58;100437.00;;;18.20
75822;BMP180;64454;51.984;9.838;2023-08-24T06:03:27;100437.00;;;18.40
75822;BMP180;64454;51.984;9.838;2023-08-24T06:05:53;100442.00;;;18.60
75822;BMP180;64454;51.984;9.838;2023-08-24T06:08:21;100451.00;;;18.70
75822;BMP180;64454;51.984;9.838;2023-08-24T06:10:48;100451.00;;;18.40
75822;BMP180;64454;51.984;9.838;2023-08-24T06:13:15;100448.00;;;18.30
75822;BMP180;64454;51.984;9.838;2023-08-24T06:15:42;100436.00;;;18.20
75822;BMP180;64454;51.984;9.838;2023-08-24T06:18:09;100444.00;;;18.30
75822;BMP180;64454;51.984;9.838;2023-08-24T06:20:37;100438.00;;;18.30
75822;BMP180;64454;51.984;9.838;2023-08-24T06:23:04;100434.00;;;18.40
75822;BMP180;64454;51.984;9.838;2023-08-24T06:25:31;100423.00;;;18.20
75822;BMP180;64454;51.984;9.838;2023-08-24T06:27:58;100411.00;;;18.00
75822;BMP180;64454;51.984;9.838;2023-08-24T06:30:26;100412.00;;;18.10
75822;BMP180;64454;51.984;9.838;2023-08-24T06:32:53;100413.00;;;18.20
75822;BMP180;64454;51.984;9.838;2023-08-24T06:35:20;100400.00;;;18.10
75822;BMP180;64454;51.984;9.838;2023-08-24T06:37:48;100403.00;;;18.20
75822;BMP180;64454;51.984;9.838;2023-08-24T06:40:16;100395.00;;;18.30
75822;BMP180;64454;51.984;9.838;2023-08-24T06:42:43;100396.00;;;18.30
75822;BMP180;64454;51.984;9.838;2023-08-24T06:45:10;100391.00;;;18.10
75822;BMP180;64454;51.984;9.838;2023-08-24T06:47:37;100398.00;;;18.20
75822;BMP180;64454;51.984;9.838;2023-08-24T06:50:05;100387.00;;;18.50
75822;BMP180;64454;51.984;9.838;2023-08-24T06:52:32;100375.00;;;18.50
75822;BMP180;64454;51.984;9.838;2023-08-24T06:55:01;100369.00;;;18.40
75822;BMP180;64454;51.984;9.838;2023-08-24T06:57:29;100371.00;;;18.50
75822;BMP180;64454;51.984;9.838;2023-08-24T06:59:56;100377.00;;;18.70
75822;BMP180;64454;51.984;9.838;2023-08-24T07:02:23;100372.00;;;18.80
75822;BMP180;64454;51.984;9.838;2023-08-24T07:04:50;100370.00;;;18.90
75822;BMP180;64454;51.984;9.838;2023-08-24T07:07:16;100371.00;;;19.20
75822;BMP180;64454;51.984;9.838;2023-08-24T07:09:43;100364.00;;;19.10
75822;BMP180;64454;51.984;9.838;2023-08-24T07:12:12;100364.00;;;19.10
75822;BMP180;64454;51.984;9.838;2023-08-24T07:14:39;100374.00;;;19.20
75822;BMP180;64454;51.984;9.838;2023-08-24T07:17:06;100369.00;;;19.50
75822;BMP180;64454;51.984;9.838;2023-08-24T07:19:33;100364.00;;;19.30
75822;BMP180;64454;51.984;9.838;2023-08-24T07:22:00;100358.00;;;19.40
75822;BMP180;64454;51.984;9.838;2023-08-24T07:24:27;100354.00;;;19.20
75822;BMP180;64454;51.984;9.838;2023-08-24T07:26:55;100349.00;;;19.30
75822;BMP180;64454;51.984;9.838;2023-08-24T07:29:24;100342.00;;;19.20
75822;BMP180;64454;51.984;9.838;2023-08-24T07:31:50;100342.00;;;19.30
75822;BMP180;64454;51.984;9.838;2023-08-24T07:34:20;100346.00;;;19.50
75822;BMP180;64454;51.984;9.838;2023-08-24T07:36:47;100344.00;;;19.50
75822;BMP180;64454;51.984;9.838;2023-08-24T07:39:16;100340.00;;;19.50
75822;BMP180;64454;51.984;9.838;2023-08-24T07:41:44;100340.00;;;19.70
75822;BMP180;64454;51.984;9.838;2023-08-24T07:44:12;100340.00;;;20.10
75822;BMP180;64454;51.984;9.838;2023-08-24T07:46:41;100333.00;;;20.50
75822;BMP180;64454;51.984;9.838;2023-08-24T07:49:08;100325.00;;;20.50
75822;BMP180;64454;51.984;9.838;2023-08-24T07:51:35;100335.00;;;20.50
75822;BMP180;64454;51.984;9.838;2023-08-24T07:54:03;100337.00;;;20.90
75822;BMP180;64454;51.984;9.838;2023-08-24T07:56:32;100335.00;;;20.80
75822;BMP180;64454;51.984;9.838;2023-08-24T07:58:59;100331.00;;;21.00
75822;BMP180;64454;51.984;9.838;2023-08-24T08:01:26;100325.00;;;21.30
75822;BMP180;64454;51.984;9.838;2023-08-24T08:03:54;100318.00;;;21.60
75822;BMP180;64454;51.984;9.838;2023-08-24T08:06:21;100324.00;;;21.30
75822;BMP180;64454;51.984;9.838;2023-08-24T08:08:50;100321.00;;;21.50
75822;BMP180;64454;51.984;9.838;2023-08-24T08:11:19;100317.00;;;21.40
75822;BMP180;64454;51.984;9.838;2023-08-24T08:13:48;100308.00;;;21.90
75822;BMP180;64454;51.984;9.838;2023-08-24T08:16:15;100311.00;;;21.70
75822;BMP180;64454;51.984;9.838;2023-08-24T08:18:42;100315.00;;;21.60
75822;BMP180;64454;51.984;9.838;2023-08-24T08:21:16;100313.00;;;21.30
75822;BMP180;64454;51.984;9.838;2023-08-24T08:23:45;100310.00;;;21.20
75822;BMP180;64454;51.984;9.838;2023-08-24T08:26:12;100310.00;;;21.30
75822;BMP180;64454;51.984;9.838;2023-08-24T08:28:40;100304.00;;;21.60
75822;BMP180;64454;51.984;9.838;2023-08-24T08:31:07;100307.00;;;21.60
75822;BMP180;64454;51.984;9.838;2023-08-24T08:33:34;100307.00;;;21.80
75822;BMP180;64454;51.984;9.838;2023-08-24T08:36:01;100311.00;;;22.00
75822;BMP180;64454;51.984;9.838;2023-08-24T08:38:30;100303.00;;;21.90
75822;BMP180;64454;51.984;9.838;2023-08-24T08:41:03;100307.00;;;22.20
75822;BMP180;64454;51.984;9.838;2023-08-24T08:43:30;100301.00;;;21.90
75822;BMP180;64454;51.984;9.838;2023-08-24T08:45:59;100305.00;;;21.60
75822;BMP180;64454;51.984;9.838;2023-08-24T08:48:30;100308.00;;;21.90
75822;BMP180;64454;51.984;9.838;2023-08-24T08:50:58;100308.00;;;22.00
75822;BMP180;64454;51.984;9.838;2023-08-24T08:53:27;100303.00;;;22.10
75822;BMP180;64454;51.984;9.838;2023-08-24T08:55:56;100295.00;;;22.10
75822;BMP180;64454;51.984;9.838;2023-08-24T08:58:31;100301.00;;;22.30
75822;BMP180;64454;51.984;9.838;2023-08-24T09:00:58;100300.00;;;22.60
75822;BMP180;64454;51.984;9.838;2023-08-24T09:03:27;100298.00;;;22.40
75822;BMP180;64454;51.984;9.838;2023-08-24T09:05:57;100294.00;;;22.20
75822;BMP180;64454;51.984;9.838;2023-08-24T09:08:26;100302.00;;;22.20
75822;BMP180;64454;51.984;9.838;2023-08-24T09:10:55;100301.00;;;23.10
75822;BMP180;64454;51.984;9.838;2023-08-24T09:13:22;100293.00;;;24.20
75822;BMP180;64454;51.984;9.838;2023-08-24T09:15:51;100277.00;;;25.90
75822;BMP180;64454;51.984;9.838;2023-08-24T09:18:19;100297.00;;;26.10
75822;BMP180;64454;51.984;9.838;2023-08-24T09:20:49;100294.00;;;26.80
75822;BMP180;64454;51.984;9.838;2023-08-24T09:23:18;100296.00;;;27.70
75822;BMP180;64454;51.984;9.838;2023-08-24T09:25:46;100299.00;;;27.80
75822;BMP180;64454;51.984;9.838;2023-08-24T09:28:23;100292.00;;;26.80
75822;BMP180;64454;51.984;9.838;2023-08-24T09:30:53;100273.00;;;27.60
75822;BMP180;64454;51.984;9.838;2023-08-24T09:33:21;100268.00;;;27.80
75822;BMP180;64454;51.984;9.838;2023-08-24T09:35:53;100266.00;;;30.20
75822;BMP180;64454;51.984;9.838;2023-08-24T09:38:23;100265.00;;;31.70
75822;BMP180;64454;51.984;9.838;2023-08-24T09:40:51;100254.00;;;29.40
75822;BMP180;64454;51.984;9.838;2023-08-24T09:43:21;100260.00;;;32.30
75822;BMP180;64454;51.984;9.838;2023-08-24T09:45:49;100253.00;;;32.30
75822;BMP180;64454;51.984;9.838;2023-08-24T09:48:16;100257.00;;;32.30
75822;BMP180;64454;51.984;9.838;2023-08-24T09:50:45;100258.00;;;31.00
75822;BMP180;64454;51.984;9.838;2023-08-24T09:53:17;100246.00;;;33.90
75822;BMP180;64454;51.984;9.838;2023-08-24T09:55:53;100237.00;;;34.90
75822;BMP180;64454;51.984;9.838;2023-08-24T09:58:22;100235.00;;;33.60
75822;BMP180;64454;51.984;9.838;2023-08-24T10:00:50;100232.00;;;35.50
75822;BMP180;64454;51.984;9.838;2023-08-24T10:03:20;100218.00;;;33.90
75822;BMP180;64454;51.984;9.838;2023-08-24T10:05:51;100221.00;;;33.80
75822;BMP180;64454;51.984;9.838;2023-08-24T10:08:22;100214.00;;;34.40
75822;BMP180;64454;51.984;9.838;2023-08-24T10:10:55;100225.00;;;36.30
75822;BMP180;64454;51.984;9.838;2023-08-24T10:13:37;100216.00;;;35.00
75822;BMP180;64454;51.984;9.838;2023-08-24T10:16:07;100210.00;;;36.90
75822;BMP180;64454;51.984;9.838;2023-08-24T10:18:36;100201.00;;;35.90
75822;BMP180;64454;51.984;9.838;2023-08-24T10:21:04;100203.00;;;35.30
75822;BMP180;64454;51.984;9.838;2023-08-24T10:23:31;100188.00;;;33.00
75822;BMP180;64454;51.984;9.838;2023-08-24T10:26:03;100193.00;;;34.50
75822;BMP180;64454;51.984;9.838;2023-08-24T10:28:32;100186.00;;;35.00
75822;BMP180;64454;51.984;9.838;2023-08-24T10:31:01;100178.00;;;36.30
75822;BMP180;64454;51.984;9.838;2023-08-24T10:33:30;100173.00;;;36.20
75822;BMP180;64454;51.984;9.838;2023-08-24T10:35:59;100169.00;;;34.20
75822;BMP180;64454;51.984;9.838;2023-08-24T10:38:28;100170.00;;;33.70
75822;BMP180;64454;51.984;9.838;2023-08-24T10:41:02;100176.00;;;32.70
75822;BMP180;64454;51.984;9.838;2023-08-24T10:43:34;100170.00;;;30.70
75822;BMP180;64454;51.984;9.838;2023-08-24T10:46:02;100181.00;;;32.70
75822;BMP180;64454;51.984;9.838;2023-08-24T10:48:56;100176.00;;;33.70
75822;BMP180;64454;51.984;9.838;2023-08-24T10:51:24;100177.00;;;32.30
75822;BMP180;64454;51.984;9.838;2023-08-24T10:53:55;100182.00;;;33.40
75822;BMP180;64454;51.984;9.838;2023-08-24T10:56:32;100180.00;;;33.30
75822;BMP180;64454;51.984;9.838;2023-08-24T10:59:17;100176.00;;;32.60
75822;BMP180;64454;51.984;9.838;2023-08-24T11:01:55;100175.00;;;31.40
75822;BMP180;64454;51.984;9.838;2023-08-24T11:04:24;100178.00;;;33.80
75822;BMP180;64454;51.984;9.838;2023-08-24T11:06:53;100178.00;;;33.60
75822;BMP180;64454;51.984;9.838;2023-08-24T11:09:22;100175.00;;;32.10
75822;BMP180;64454;51.984;9.838;2023-08-24T11:11:59;100174.00;;;31.80
75822;BMP180;64454;51.984;9.838;2023-08-24T11:14:28;100185.00;;;33.10
75822;BMP180;64454;51.984;9.838;2023-08-24T11:16:58;100167.00;;;31.90
75822;BMP180;64454;51.984;9.838;2023-08-24T11:19:26;100180.00;;;33.20
75822;BMP180;64454;51.984;9.838;2023-08-24T11:21:53;100180.00;;;33.70
75822;BMP180;64454;51.984;9.838;2023-08-24T11:24:21;100183.00;;;35.10
75822;BMP180;64454;51.984;9.838;2023-08-24T11:26:49;100183.00;;;35.40
75822;BMP180;64454;51.984;9.838;2023-08-24T11:29:20;100177.00;;;34.30
75822;BMP180;64454;51.984;9.838;2023-08-24T11:31:48;100183.00;;;34.50
75822;BMP180;64454;51.984;9.838;2023-08-24T11:34:18;100176.00;;;35.20
75822;BMP180;64454;51.984;9.838;2023-08-24T11:36:47;100183.00;;;35.70
75822;BMP180;64454;51.984;9.838;2023-08-24T11:39:17;100184.00;;;36.60
75822;BMP180;64454;51.984;9.838;2023-08-24T11:41:56;100162.00;;;34.30
75822;BMP180;64454;51.984;9.838;2023-08-24T11:44:23;100164.00;;;34.70
75822;BMP180;64454;51.984;9.838;2023-08-24T11:46:52;100154.00;;;36.90
75822;BMP180;64454;51.984;9.838;2023-08-24T11:49:21;100154.00;;;35.80
75822;BMP180;64454;51.984;9.838;2023-08-24T11:51:48;100143.00;;;35.70
75822;BMP180;64454;51.984;9.838;2023-08-24T11:54:19;100136.00;;;36.60
75822;BMP180;64454;51.984;9.838;2023-08-24T11:56:47;100131.00;;;37.40
75822;BMP180;64454;51.984;9.838;2023-08-24T11:59:17;100127.00;;;37.50
75822;BMP180;64454;51.984;9.838;2023-08-24T12:01:45;100126.00;;;36.30
75822;BMP180;64454;51.984;9.838;2023-08-24T12:04:17;100122.00;;;34.10
75822;BMP180;64454;51.984;9.838;2023-08-24T12:06:45;100108.00;;;34.90
75822;BMP180;64454;51.984;9.838;2023-08-24T12:09:13;100102.00;;;35.50
75822;BMP180;64454;51.984;9.838;2023-08-24T12:11:40;100098.00;;;34.30
75822;BMP180;64454;51.984;9.838;2023-08-24T12:14:15;100095.00;;;35.20
75822;BMP180;64454;51.984;9.838;2023-08-24T12:16:44;100090.00;;;35.50
75822;BMP180;64454;51.984;9.838;2023-08-24T12:19:11;100077.00;;;34.30
75822;BMP180;64454;51.984;9.838;2023-08-24T12:21:43;100070.00;;;34.70
75822;BMP180;64454;51.984;9.838;2023-08-24T12:24:15;100068.00;;;35.10
75822;BMP180;64454;51.984;9.838;2023-08-24T12:26:43;100069.00;;;33.20
75822;BMP180;64454;51.984;9.838;2023-08-24T12:29:10;100074.00;;;33.40
75822;BMP180;64454;51.984;9.838;2023-08-24T12:31:42;100061.00;;;32.70
75822;BMP180;64454;51.984;9.838;2023-08-24T12:34:10;100047.00;;;32.10
75822;BMP180;64454;51.984;9.838;2023-08-24T12:36:44;100047.00;;;32.70
75822;BMP180;64454;51.984;9.838;2023-08-24T12:39:11;100038.00;;;32.10
75822;BMP180;64454;51.984;9.838;2023-08-24T12:41:40;100033.00;;;32.10
75822;BMP180;64454;51.984;9.838;2023-08-24T12:44:07;100032.00;;;31.20
75822;BMP180;64454;51.984;9.838;2023-08-24T12:46:35;100027.00;;;30.70
75822;BMP180;64454;51.984;9.838;2023-08-24T12:49:02;100019.00;;;30.40
75822;BMP180;64454;51.984;9.838;2023-08-24T12:51:29;100024.00;;;29.70
75822;BMP180;64454;51.984;9.838;2023-08-24T12:53:57;100025.00;;;30.20
75822;BMP180;64454;51.984;9.838;2023-08-24T12:56:25;100025.00;;;30.70
75822;BMP180;64454;51.984;9.838;2023-08-24T12:58:51;100015.00;;;31.40
75822;BMP180;64454;51.984;9.838;2023-08-24T13:01:19;100016.00;;;30.90
75822;BMP180;64454;51.984;9.838;2023-08-24T13:03:46;100023.00;;;30.80
75822;BMP180;64454;51.984;9.838;2023-08-24T13:06:13;100014.00;;;31.10
75822;BMP180;64454;51.984;9.838;2023-08-24T13:08:40;100020.00;;;31.20
75822;BMP180;64454;51.984;9.838;2023-08-24T13:11:08;100011.00;;;30.90
75822;BMP180;64454;51.984;9.838;2023-08-24T13:13:37;100006.00;;;30.10
75822;BMP180;64454;51.984;9.838;2023-08-24T13:16:04;100018.00;;;30.80
75822;BMP180;64454;51.984;9.838;2023-08-24T13:18:31;100020.00;;;31.00
75822;BMP180;64454;51.984;9.838;2023-08-24T13:20:58;100025.00;;;30.90
75822;BMP180;64454;51.984;9.838;2023-08-24T13:23:25;100020.00;;;30.20
75822;BMP180;64454;51.984;9.838;2023-08-24T13:25:51;100016.00;;;29.90
75822;BMP180;64454;51.984;9.838;2023-08-24T13:28:20;100020.00;;;29.50
75822;BMP180;64454;51.984;9.838;2023-08-24T13:30:47;100022.00;;;29.20
75822;BMP180;64454;51.984;9.838;2023-08-24T13:33:14;100014.00;;;29.20
75822;BMP180;64454;51.984;9.838;2023-08-24T13:35:41;100023.00;;;29.70
75822;BMP180;64454;51.984;9.838;2023-08-24T13:38:08;100014.00;;;30.10
75822;BMP180;64454;51.984;9.838;2023-08-24T13:40:35;100015.00;;;30.00
75822;BMP180;64454;51.984;9.838;2023-08-24T13:43:02;100016.00;;;30.30
75822;BMP180;64454;51.984;9.838;2023-08-24T13:45:31;100017.00;;;29.90
75822;BMP180;64454;51.984;9.838;2023-08-24T13:48:00;100024.00;;;30.40
75822;BMP180;64454;51.984;9.838;2023-08-24T13:50:27;100023.00;;;30.70
75822;BMP180;64454;51.984;9.838;2023-08-24T13:52:54;100017.00;;;30.20
75822;BMP180;64454;51.984;9.838;2023-08-24T13:55:22;100010.00;;;29.50
75822;BMP180;64454;51.984;9.838;2023-08-24T13:57:49;100009.00;;;29.20
75822;BMP180;64454;51.984;9.838;2023-08-24T14:00:17;100004.00;;;29.30
75822;BMP180;64454;51.984;9.838;2023-08-24T14:02:45;100002.00;;;29.60